sensor_id;sensor_type;location;lat;lon;timestamp;P1;durP1;ratioP1;P2;durP2;ratioP2
64615;SDS011;51027;42.162;24.754;2023-05-10T00:01:55;15.15;;;5.38;;
64615;SDS011;51027;42.162;24.754;2023-05-10T00:04:21;14.02;;;5.07;;
64615;SDS011;51027;42.162;24.754;2023-05-10T00:06:46;17.63;;;5.57;;
64615;SDS011;51027;42.162;24.754;2023-05-10T00:09:12;14.40;;;5.47;;
64615;SDS011;51027;42.162;24.754;2023-05-10T00:11:37;15.43;;;5.65;;
64615;SDS011;51027;42.162;24.754;2023-05-10T00:14:03;15.80;;;5.30;;
64615;SDS011;51027;42.162;24.754;2023-05-10T00:16:28;15.50;;;5.55;;
64615;SDS011;51027;42.162;24.754;2023-05-10T00:18:54;15.68;;;5.47;;
64615;SDS011;51027;42.162;24.754;2023-05-10T00:21:19;18.08;;;5.63;;
64615;SDS011;51027;42.162;24.754;2023-05-10T00:23:45;15.43;;;5.40;;
64615;SDS011;51027;42.162;24.754;2023-05-10T00:26:10;15.73;;;6.03;;
64615;SDS011;51027;42.162;24.754;2023-05-10T00:28:36;16.67;;;5.07;;
64615;SDS011;51027;42.162;24.754;2023-05-10T00:31:01;13.30;;;5.28;;
64615;SDS011;51027;42.162;24.754;2023-05-10T00:33:27;14.45;;;5.47;;
64615;SDS011;51027;42.162;24.754;2023-05-10T00:35:52;16.58;;;6.35;;
64615;SDS011;51027;42.162;24.754;2023-05-10T00:38:18;16.90;;;6.13;;
64615;SDS011;51027;42.162;24.754;2023-05-10T00:40:43;17.25;;;6.05;;
64615;SDS011;51027;42.162;24.754;2023-05-10T00:43:09;15.10;;;5.45;;
64615;SDS011;51027;42.162;24.754;2023-05-10T00:45:34;17.60;;;5.90;;
64615;SDS011;51027;42.162;24.754;2023-05-10T00:48:02;15.00;;;5.55;;
64615;SDS011;51027;42.162;24.754;2023-05-10T00:50:28;14.60;;;5.05;;
64615;SDS011;51027;42.162;24.754;2023-05-10T00:52:54;16.00;;;5.80;;
64615;SDS011;51027;42.162;24.754;2023-05-10T00:55:20;17.58;;;5.93;;
64615;SDS011;51027;42.162;24.754;2023-05-10T00:57:46;15.57;;;5.72;;
64615;SDS011;51027;42.162;24.754;2023-05-10T01:00:12;15.65;;;6.18;;
64615;SDS011;51027;42.162;24.754;2023-05-10T01:02:42;18.25;;;5.88;;
64615;SDS011;51027;42.162;24.754;2023-05-10T01:05:09;18.00;;;6.30;;
64615;SDS011;51027;42.162;24.754;2023-05-10T01:07:34;18.00;;;6.40;;
64615;SDS011;51027;42.162;24.754;2023-05-10T01:10:00;16.63;;;6.30;;
64615;SDS011;51027;42.162;24.754;2023-05-10T01:12:25;17.95;;;6.38;;
64615;SDS011;51027;42.162;24.754;2023-05-10T01:14:51;17.67;;;6.85;;
64615;SDS011;51027;42.162;24.754;2023-05-10T01:17:17;17.33;;;7.38;;
64615;SDS011;51027;42.162;24.754;2023-05-10T01:19:42;18.02;;;7.55;;
64615;SDS011;51027;42.162;24.754;2023-05-10T01:41:17;19.20;;;7.80;;
64615;SDS011;51027;42.162;24.754;2023-05-10T01:46:20;19.38;;;8.55;;
64615;SDS011;51027;42.162;24.754;2023-05-10T01:49:00;18.58;;;7.55;;
64615;SDS011;51027;42.162;24.754;2023-05-10T01:51:29;18.00;;;7.82;;
64615;SDS011;51027;42.162;24.754;2023-05-10T01:54:02;20.65;;;8.40;;
64615;SDS011;51027;42.162;24.754;2023-05-10T01:56:29;19.25;;;8.32;;
64615;SDS011;51027;42.162;24.754;2023-05-10T01:58:57;20.70;;;9.07;;
64615;SDS011;51027;42.162;24.754;2023-05-10T02:01:25;21.45;;;8.18;;
64615;SDS011;51027;42.162;24.754;2023-05-10T02:03:51;18.45;;;8.93;;
64615;SDS011;51027;42.162;24.754;2023-05-10T02:06:20;20.55;;;8.98;;
64615;SDS011;51027;42.162;24.754;2023-05-10T02:08:48;17.80;;;7.90;;
64615;SDS011;51027;42.162;24.754;2023-05-10T02:11:15;17.85;;;7.88;;
64615;SDS011;51027;42.162;24.754;2023-05-10T02:13:43;19.98;;;8.15;;
64615;SDS011;51027;42.162;24.754;2023-05-10T02:16:10;19.42;;;7.00;;
64615;SDS011;51027;42.162;24.754;2023-05-10T02:18:38;19.73;;;8.55;;
64615;SDS011;51027;42.162;24.754;2023-05-10T02:21:06;17.95;;;6.97;;
64615;SDS011;51027;42.162;24.754;2023-05-10T02:23:34;19.73;;;7.15;;
64615;SDS011;51027;42.162;24.754;2023-05-10T02:26:01;18.55;;;8.15;;
64615;SDS011;51027;42.162;24.754;2023-05-10T02:28:28;19.55;;;7.45;;
64615;SDS011;51027;42.162;24.754;2023-05-10T02:30:55;18.15;;;7.82;;
64615;SDS011;51027;42.162;24.754;2023-05-10T02:33:21;20.73;;;8.10;;
64615;SDS011;51027;42.162;24.754;2023-05-10T02:35:48;20.98;;;8.15;;
64615;SDS011;51027;42.162;24.754;2023-05-10T02:38:15;19.75;;;7.72;;
64615;SDS011;51027;42.162;24.754;2023-05-10T02:40:43;19.67;;;7.60;;
64615;SDS011;51027;42.162;24.754;2023-05-10T02:43:12;20.30;;;7.93;;
64615;SDS011;51027;42.162;24.754;2023-05-10T02:45:39;18.95;;;8.07;;
64615;SDS011;51027;42.162;24.754;2023-05-10T02:48:06;19.27;;;8.00;;
64615;SDS011;51027;42.162;24.754;2023-05-10T02:50:32;19.92;;;8.50;;
64615;SDS011;51027;42.162;24.754;2023-05-10T02:53:04;18.83;;;7.93;;
64615;SDS011;51027;42.162;24.754;2023-05-10T02:55:39;20.40;;;8.25;;
64615;SDS011;51027;42.162;24.754;2023-05-10T02:58:07;19.45;;;8.85;;
64615;SDS011;51027;42.162;24.754;2023-05-10T03:00:32;22.52;;;9.50;;
64615;SDS011;51027;42.162;24.754;2023-05-10T03:02:58;20.52;;;8.80;;
64615;SDS011;51027;42.162;24.754;2023-05-10T03:05:23;20.52;;;7.97;;
64615;SDS011;51027;42.162;24.754;2023-05-10T03:07:49;18.48;;;8.43;;
64615;SDS011;51027;42.162;24.754;2023-05-10T03:10:16;18.33;;;8.15;;
64615;SDS011;51027;42.162;24.754;2023-05-10T03:15:58;16.33;;;6.57;;
64615;SDS011;51027;42.162;24.754;2023-05-10T03:18:29;20.00;;;7.53;;
64615;SDS011;51027;42.162;24.754;2023-05-10T03:21:02;19.27;;;7.95;;
64615;SDS011;51027;42.162;24.754;2023-05-10T03:23:34;17.60;;;7.30;;
64615;SDS011;51027;42.162;24.754;2023-05-10T03:26:05;17.30;;;6.97;;
64615;SDS011;51027;42.162;24.754;2023-05-10T03:28:32;16.20;;;6.60;;
64615;SDS011;51027;42.162;24.754;2023-05-10T03:30:59;16.45;;;6.75;;
64615;SDS011;51027;42.162;24.754;2023-05-10T03:33:25;19.05;;;6.47;;
64615;SDS011;51027;42.162;24.754;2023-05-10T03:35:50;16.55;;;6.80;;
64615;SDS011;51027;42.162;24.754;2023-05-10T03:38:16;18.05;;;6.63;;
64615;SDS011;51027;42.162;24.754;2023-05-10T03:40:41;17.10;;;6.80;;
64615;SDS011;51027;42.162;24.754;2023-05-10T03:43:07;16.35;;;6.60;;
64615;SDS011;51027;42.162;24.754;2023-05-10T03:45:32;16.42;;;7.28;;
64615;SDS011;51027;42.162;24.754;2023-05-10T03:47:58;20.20;;;7.93;;
64615;SDS011;51027;42.162;24.754;2023-05-10T03:50:23;17.25;;;6.93;;
64615;SDS011;51027;42.162;24.754;2023-05-10T03:52:49;18.38;;;7.05;;
64615;SDS011;51027;42.162;24.754;2023-05-10T03:55:15;17.42;;;7.13;;
64615;SDS011;51027;42.162;24.754;2023-05-10T03:57:41;19.83;;;8.07;;
64615;SDS011;51027;42.162;24.754;2023-05-10T04:00:07;20.65;;;8.13;;
64615;SDS011;51027;42.162;24.754;2023-05-10T04:02:33;20.48;;;8.00;;
64615;SDS011;51027;42.162;24.754;2023-05-10T04:04:58;19.17;;;7.90;;
64615;SDS011;51027;42.162;24.754;2023-05-10T04:07:24;19.83;;;6.80;;
64615;SDS011;51027;42.162;24.754;2023-05-10T04:09:49;19.80;;;7.55;;
64615;SDS011;51027;42.162;24.754;2023-05-10T04:12:15;19.13;;;7.03;;
64615;SDS011;51027;42.162;24.754;2023-05-10T04:14:40;20.50;;;7.80;;
64615;SDS011;51027;42.162;24.754;2023-05-10T04:17:05;19.40;;;7.25;;
64615;SDS011;51027;42.162;24.754;2023-05-10T04:19:31;20.75;;;7.47;;
64615;SDS011;51027;42.162;24.754;2023-05-10T04:21:57;19.30;;;7.57;;
64615;SDS011;51027;42.162;24.754;2023-05-10T04:24:23;20.42;;;8.52;;
64615;SDS011;51027;42.162;24.754;2023-05-10T04:26:49;18.45;;;7.03;;
64615;SDS011;51027;42.162;24.754;2023-05-10T04:29:14;19.25;;;7.78;;
64615;SDS011;51027;42.162;24.754;2023-05-10T04:31:40;18.95;;;8.65;;
64615;SDS011;51027;42.162;24.754;2023-05-10T04:34:05;18.30;;;7.55;;
64615;SDS011;51027;42.162;24.754;2023-05-10T04:36:31;20.60;;;8.18;;
64615;SDS011;51027;42.162;24.754;2023-05-10T04:38:58;18.25;;;7.72;;
64615;SDS011;51027;42.162;24.754;2023-05-10T04:41:24;18.13;;;7.90;;
64615;SDS011;51027;42.162;24.754;2023-05-10T04:43:50;20.38;;;7.88;;
64615;SDS011;51027;42.162;24.754;2023-05-10T04:46:15;21.23;;;8.77;;
64615;SDS011;51027;42.162;24.754;2023-05-10T04:48:41;22.42;;;7.95;;
64615;SDS011;51027;42.162;24.754;2023-05-10T04:51:06;17.48;;;7.40;;
64615;SDS011;51027;42.162;24.754;2023-05-10T04:53:32;19.35;;;8.02;;
64615;SDS011;51027;42.162;24.754;2023-05-10T04:55:57;20.27;;;8.18;;
64615;SDS011;51027;42.162;24.754;2023-05-10T04:58:22;20.45;;;7.43;;
64615;SDS011;51027;42.162;24.754;2023-05-10T05:00:48;17.58;;;6.75;;
64615;SDS011;51027;42.162;24.754;2023-05-10T05:03:13;16.80;;;7.03;;
64615;SDS011;51027;42.162;24.754;2023-05-10T05:05:39;19.58;;;7.75;;
64615;SDS011;51027;42.162;24.754;2023-05-10T05:08:04;19.45;;;7.57;;
64615;SDS011;51027;42.162;24.754;2023-05-10T05:10:29;18.70;;;7.07;;
64615;SDS011;51027;42.162;24.754;2023-05-10T05:12:55;17.42;;;7.20;;
64615;SDS011;51027;42.162;24.754;2023-05-10T05:15:20;17.85;;;7.45;;
64615;SDS011;51027;42.162;24.754;2023-05-10T05:17:46;20.58;;;7.80;;
64615;SDS011;51027;42.162;24.754;2023-05-10T05:20:11;19.77;;;7.30;;
64615;SDS011;51027;42.162;24.754;2023-05-10T05:22:38;18.65;;;6.97;;
64615;SDS011;51027;42.162;24.754;2023-05-10T05:25:04;20.48;;;7.40;;
64615;SDS011;51027;42.162;24.754;2023-05-10T05:27:30;16.38;;;6.38;;
64615;SDS011;51027;42.162;24.754;2023-05-10T05:29:56;17.92;;;7.03;;
64615;SDS011;51027;42.162;24.754;2023-05-10T05:32:22;18.08;;;6.82;;
64615;SDS011;51027;42.162;24.754;2023-05-10T05:34:48;18.20;;;7.78;;
64615;SDS011;51027;42.162;24.754;2023-05-10T05:37:14;19.63;;;7.40;;
64615;SDS011;51027;42.162;24.754;2023-05-10T05:39:41;16.40;;;6.13;;
64615;SDS011;51027;42.162;24.754;2023-05-10T05:42:07;16.40;;;6.38;;
64615;SDS011;51027;42.162;24.754;2023-05-10T05:44:33;16.42;;;6.32;;
64615;SDS011;51027;42.162;24.754;2023-05-10T05:46:58;17.67;;;6.78;;
64615;SDS011;51027;42.162;24.754;2023-05-10T05:49:24;16.33;;;6.90;;
64615;SDS011;51027;42.162;24.754;2023-05-10T05:51:49;19.38;;;6.68;;
64615;SDS011;51027;42.162;24.754;2023-05-10T05:54:15;20.88;;;6.78;;
64615;SDS011;51027;42.162;24.754;2023-05-10T05:56:41;19.90;;;7.30;;
64615;SDS011;51027;42.162;24.754;2023-05-10T05:59:06;17.33;;;6.60;;
64615;SDS011;51027;42.162;24.754;2023-05-10T06:01:32;16.60;;;6.50;;
64615;SDS011;51027;42.162;24.754;2023-05-10T06:03:57;16.77;;;6.93;;
64615;SDS011;51027;42.162;24.754;2023-05-10T06:06:22;18.75;;;6.63;;
64615;SDS011;51027;42.162;24.754;2023-05-10T06:08:48;18.73;;;6.80;;
64615;SDS011;51027;42.162;24.754;2023-05-10T06:11:13;18.67;;;7.80;;
64615;SDS011;51027;42.162;24.754;2023-05-10T06:13:38;15.93;;;5.95;;
64615;SDS011;51027;42.162;24.754;2023-05-10T06:16:04;21.17;;;7.28;;
64615;SDS011;51027;42.162;24.754;2023-05-10T06:18:30;18.15;;;7.20;;
64615;SDS011;51027;42.162;24.754;2023-05-10T06:20:55;17.30;;;6.68;;
64615;SDS011;51027;42.162;24.754;2023-05-10T06:23:21;15.95;;;6.57;;
64615;SDS011;51027;42.162;24.754;2023-05-10T06:25:47;17.75;;;6.32;;
64615;SDS011;51027;42.162;24.754;2023-05-10T06:28:12;16.77;;;5.93;;
64615;SDS011;51027;42.162;24.754;2023-05-10T06:30:38;16.20;;;6.70;;
64615;SDS011;51027;42.162;24.754;2023-05-10T06:33:03;18.42;;;6.82;;
64615;SDS011;51027;42.162;24.754;2023-05-10T06:35:28;17.17;;;6.07;;
64615;SDS011;51027;42.162;24.754;2023-05-10T06:37:54;17.27;;;6.50;;
64615;SDS011;51027;42.162;24.754;2023-05-10T06:40:20;16.45;;;5.93;;
64615;SDS011;51027;42.162;24.754;2023-05-10T06:42:46;18.13;;;6.03;;
64615;SDS011;51027;42.162;24.754;2023-05-10T06:45:12;18.98;;;6.85;;
64615;SDS011;51027;42.162;24.754;2023-05-10T06:47:39;14.93;;;5.72;;
64615;SDS011;51027;42.162;24.754;2023-05-10T06:50:06;18.00;;;6.40;;
64615;SDS011;51027;42.162;24.754;2023-05-10T06:52:36;18.55;;;6.22;;
64615;SDS011;51027;42.162;24.754;2023-05-10T06:55:03;15.18;;;5.75;;
64615;SDS011;51027;42.162;24.754;2023-05-10T06:57:29;16.42;;;5.82;;
64615;SDS011;51027;42.162;24.754;2023-05-10T06:59:54;16.85;;;6.25;;
64615;SDS011;51027;42.162;24.754;2023-05-10T07:02:21;16.63;;;6.32;;
64615;SDS011;51027;42.162;24.754;2023-05-10T07:04:47;14.52;;;5.50;;
64615;SDS011;51027;42.162;24.754;2023-05-10T07:07:13;16.40;;;6.05;;
64615;SDS011;51027;42.162;24.754;2023-05-10T07:09:39;15.50;;;5.53;;
64615;SDS011;51027;42.162;24.754;2023-05-10T07:12:04;16.30;;;5.90;;
64615;SDS011;51027;42.162;24.754;2023-05-10T07:14:30;16.85;;;6.38;;
64615;SDS011;51027;42.162;24.754;2023-05-10T07:16:55;16.05;;;6.63;;
64615;SDS011;51027;42.162;24.754;2023-05-10T07:19:21;16.73;;;5.80;;
64615;SDS011;51027;42.162;24.754;2023-05-10T07:21:46;15.85;;;6.32;;
64615;SDS011;51027;42.162;24.754;2023-05-10T07:24:12;15.63;;;6.07;;
64615;SDS011;51027;42.162;24.754;2023-05-10T07:26:37;15.82;;;5.88;;
64615;SDS011;51027;42.162;24.754;2023-05-10T07:29:03;17.83;;;6.32;;
64615;SDS011;51027;42.162;24.754;2023-05-10T07:31:28;15.95;;;5.45;;
64615;SDS011;51027;42.162;24.754;2023-05-10T07:33:54;16.75;;;6.25;;
64615;SDS011;51027;42.162;24.754;2023-05-10T07:36:19;15.75;;;5.88;;
64615;SDS011;51027;42.162;24.754;2023-05-10T07:38:45;15.65;;;6.07;;
64615;SDS011;51027;42.162;24.754;2023-05-10T07:41:13;14.15;;;5.25;;
64615;SDS011;51027;42.162;24.754;2023-05-10T07:43:38;16.38;;;5.97;;
64615;SDS011;51027;42.162;24.754;2023-05-10T07:46:04;14.93;;;5.68;;
64615;SDS011;51027;42.162;24.754;2023-05-10T07:48:30;16.25;;;5.20;;
64615;SDS011;51027;42.162;24.754;2023-05-10T07:50:56;14.93;;;5.43;;
64615;SDS011;51027;42.162;24.754;2023-05-10T07:53:21;17.17;;;5.93;;
64615;SDS011;51027;42.162;24.754;2023-05-10T07:55:50;14.55;;;4.95;;
64615;SDS011;51027;42.162;24.754;2023-05-10T07:58:16;18.48;;;5.97;;
64615;SDS011;51027;42.162;24.754;2023-05-10T08:00:42;13.25;;;5.05;;
64615;SDS011;51027;42.162;24.754;2023-05-10T08:03:07;15.52;;;5.03;;
64615;SDS011;51027;42.162;24.754;2023-05-10T08:05:33;13.85;;;5.00;;
64615;SDS011;51027;42.162;24.754;2023-05-10T08:07:58;15.00;;;5.63;;
64615;SDS011;51027;42.162;24.754;2023-05-10T08:10:24;12.85;;;4.55;;
64615;SDS011;51027;42.162;24.754;2023-05-10T08:12:50;14.55;;;5.05;;
64615;SDS011;51027;42.162;24.754;2023-05-10T08:15:15;15.15;;;5.03;;
64615;SDS011;51027;42.162;24.754;2023-05-10T08:17:42;17.98;;;6.65;;
64615;SDS011;51027;42.162;24.754;2023-05-10T08:20:08;13.15;;;5.03;;
64615;SDS011;51027;42.162;24.754;2023-05-10T08:22:34;18.70;;;5.55;;
64615;SDS011;51027;42.162;24.754;2023-05-10T08:24:59;16.45;;;5.32;;
64615;SDS011;51027;42.162;24.754;2023-05-10T08:27:25;14.70;;;5.47;;
64615;SDS011;51027;42.162;24.754;2023-05-10T08:29:50;15.02;;;5.22;;
64615;SDS011;51027;42.162;24.754;2023-05-10T08:32:16;15.40;;;5.35;;
64615;SDS011;51027;42.162;24.754;2023-05-10T08:34:42;15.32;;;5.45;;
64615;SDS011;51027;42.162;24.754;2023-05-10T08:37:07;18.65;;;7.65;;
64615;SDS011;51027;42.162;24.754;2023-05-10T08:39:35;16.08;;;5.57;;
64615;SDS011;51027;42.162;24.754;2023-05-10T08:42:02;16.80;;;5.68;;
64615;SDS011;51027;42.162;24.754;2023-05-10T08:44:32;12.38;;;4.75;;
64615;SDS011;51027;42.162;24.754;2023-05-10T08:47:02;21.90;;;5.75;;
64615;SDS011;51027;42.162;24.754;2023-05-10T08:49:30;14.20;;;5.10;;
64615;SDS011;51027;42.162;24.754;2023-05-10T08:51:56;14.10;;;5.10;;
64615;SDS011;51027;42.162;24.754;2023-05-10T08:54:23;16.35;;;5.70;;
64615;SDS011;51027;42.162;24.754;2023-05-10T08:56:49;14.27;;;5.10;;
64615;SDS011;51027;42.162;24.754;2023-05-10T08:59:15;16.27;;;5.82;;
64615;SDS011;51027;42.162;24.754;2023-05-10T09:01:44;15.15;;;5.75;;
64615;SDS011;51027;42.162;24.754;2023-05-10T09:04:12;14.50;;;5.70;;
64615;SDS011;51027;42.162;24.754;2023-05-10T09:06:37;13.77;;;5.50;;
64615;SDS011;51027;42.162;24.754;2023-05-10T09:09:03;15.50;;;5.90;;
64615;SDS011;51027;42.162;24.754;2023-05-10T09:11:29;14.70;;;5.38;;
64615;SDS011;51027;42.162;24.754;2023-05-10T09:13:55;13.15;;;5.53;;
64615;SDS011;51027;42.162;24.754;2023-05-10T09:16:21;14.73;;;5.38;;
64615;SDS011;51027;42.162;24.754;2023-05-10T09:18:47;15.15;;;4.97;;
64615;SDS011;51027;42.162;24.754;2023-05-10T09:21:12;17.42;;;5.30;;
64615;SDS011;51027;42.162;24.754;2023-05-10T09:23:40;15.02;;;5.53;;
64615;SDS011;51027;42.162;24.754;2023-05-10T09:26:08;14.02;;;5.70;;
64615;SDS011;51027;42.162;24.754;2023-05-10T09:28:34;15.23;;;5.38;;
64615;SDS011;51027;42.162;24.754;2023-05-10T09:31:14;16.27;;;5.82;;
64615;SDS011;51027;42.162;24.754;2023-05-10T09:33:43;14.95;;;5.57;;
64615;SDS011;51027;42.162;24.754;2023-05-10T09:36:11;16.77;;;6.00;;
64615;SDS011;51027;42.162;24.754;2023-05-10T09:38:46;13.38;;;5.30;;
64615;SDS011;51027;42.162;24.754;2023-05-10T09:41:20;15.63;;;5.82;;
64615;SDS011;51027;42.162;24.754;2023-05-10T09:43:47;14.55;;;5.18;;
64615;SDS011;51027;42.162;24.754;2023-05-10T09:46:13;13.32;;;4.57;;
64615;SDS011;51027;42.162;24.754;2023-05-10T09:48:40;13.48;;;5.00;;
64615;SDS011;51027;42.162;24.754;2023-05-10T09:51:22;12.50;;;4.80;;
64615;SDS011;51027;42.162;24.754;2023-05-10T09:56:40;14.68;;;5.10;;
64615;SDS011;51027;42.162;24.754;2023-05-10T09:59:09;14.13;;;5.00;;
64615;SDS011;51027;42.162;24.754;2023-05-10T10:01:36;15.68;;;5.50;;
64615;SDS011;51027;42.162;24.754;2023-05-10T10:04:03;14.40;;;5.13;;
64615;SDS011;51027;42.162;24.754;2023-05-10T10:06:34;16.27;;;5.05;;
64615;SDS011;51027;42.162;24.754;2023-05-10T10:09:08;15.13;;;5.18;;
64615;SDS011;51027;42.162;24.754;2023-05-10T10:11:37;14.45;;;5.88;;
64615;SDS011;51027;42.162;24.754;2023-05-10T10:14:04;12.65;;;5.05;;
64615;SDS011;51027;42.162;24.754;2023-05-10T10:16:30;14.77;;;4.88;;
64615;SDS011;51027;42.162;24.754;2023-05-10T10:18:56;13.85;;;4.75;;
64615;SDS011;51027;42.162;24.754;2023-05-10T10:21:23;14.75;;;5.18;;
64615;SDS011;51027;42.162;24.754;2023-05-10T10:23:49;14.88;;;5.18;;
64615;SDS011;51027;42.162;24.754;2023-05-10T10:26:15;14.18;;;5.25;;
64615;SDS011;51027;42.162;24.754;2023-05-10T10:34:06;14.82;;;5.63;;
64615;SDS011;51027;42.162;24.754;2023-05-10T10:36:40;14.93;;;5.32;;
64615;SDS011;51027;42.162;24.754;2023-05-10T10:39:09;14.25;;;5.70;;
64615;SDS011;51027;42.162;24.754;2023-05-10T10:41:35;12.60;;;4.95;;
64615;SDS011;51027;42.162;24.754;2023-05-10T10:54:57;13.68;;;5.32;;
64615;SDS011;51027;42.162;24.754;2023-05-10T10:57:29;16.92;;;5.85;;
64615;SDS011;51027;42.162;24.754;2023-05-10T11:00:39;14.52;;;5.10;;
64615;SDS011;51027;42.162;24.754;2023-05-10T11:02:46;14.77;;;5.35;;
64615;SDS011;51027;42.162;24.754;2023-05-10T11:07:54;15.07;;;5.35;;
64615;SDS011;51027;42.162;24.754;2023-05-10T11:10:20;13.60;;;6.10;;
64615;SDS011;51027;42.162;24.754;2023-05-10T11:12:59;13.82;;;5.40;;
64615;SDS011;51027;42.162;24.754;2023-05-10T11:15:30;17.67;;;5.97;;
64615;SDS011;51027;42.162;24.754;2023-05-10T11:17:59;15.00;;;5.70;;
64615;SDS011;51027;42.162;24.754;2023-05-10T11:20:28;17.58;;;6.07;;
64615;SDS011;51027;42.162;24.754;2023-05-10T11:23:13;15.38;;;6.22;;
64615;SDS011;51027;42.162;24.754;2023-05-10T11:25:43;15.85;;;6.22;;
64615;SDS011;51027;42.162;24.754;2023-05-10T11:28:13;13.13;;;5.28;;
64615;SDS011;51027;42.162;24.754;2023-05-10T11:30:39;15.15;;;6.00;;
64615;SDS011;51027;42.162;24.754;2023-05-10T11:33:06;14.60;;;6.03;;
64615;SDS011;51027;42.162;24.754;2023-05-10T11:35:38;17.92;;;8.55;;
64615;SDS011;51027;42.162;24.754;2023-05-10T11:38:08;15.65;;;5.85;;
64615;SDS011;51027;42.162;24.754;2023-05-10T11:43:01;13.85;;;5.53;;
64615;SDS011;51027;42.162;24.754;2023-05-10T11:45:27;12.82;;;5.20;;
64615;SDS011;51027;42.162;24.754;2023-05-10T11:47:54;13.02;;;5.40;;
64615;SDS011;51027;42.162;24.754;2023-05-10T11:50:20;15.35;;;6.43;;
64615;SDS011;51027;42.162;24.754;2023-05-10T11:52:50;13.85;;;6.22;;
64615;SDS011;51027;42.162;24.754;2023-05-10T11:55:17;17.58;;;6.53;;
64615;SDS011;51027;42.162;24.754;2023-05-10T11:57:42;12.93;;;5.30;;
64615;SDS011;51027;42.162;24.754;2023-05-10T12:00:10;16.48;;;5.93;;
64615;SDS011;51027;42.162;24.754;2023-05-10T12:02:36;15.43;;;6.35;;
64615;SDS011;51027;42.162;24.754;2023-05-10T12:05:02;15.48;;;6.85;;
64615;SDS011;51027;42.162;24.754;2023-05-10T12:07:29;15.82;;;6.28;;
64615;SDS011;51027;42.162;24.754;2023-05-10T12:12:40;13.52;;;6.20;;
64615;SDS011;51027;42.162;24.754;2023-05-10T12:15:11;13.65;;;5.20;;
64615;SDS011;51027;42.162;24.754;2023-05-10T12:17:38;15.02;;;5.88;;
64615;SDS011;51027;42.162;24.754;2023-05-10T12:20:15;15.60;;;6.43;;
64615;SDS011;51027;42.162;24.754;2023-05-10T12:23:00;15.30;;;6.57;;
64615;SDS011;51027;42.162;24.754;2023-05-10T12:25:32;14.55;;;6.30;;
64615;SDS011;51027;42.162;24.754;2023-05-10T12:27:59;14.57;;;6.43;;
64615;SDS011;51027;42.162;24.754;2023-05-10T12:30:29;14.80;;;6.38;;
64615;SDS011;51027;42.162;24.754;2023-05-10T12:33:29;15.05;;;7.13;;
64615;SDS011;51027;42.162;24.754;2023-05-10T12:35:51;16.42;;;7.32;;
64615;SDS011;51027;42.162;24.754;2023-05-10T12:38:37;16.45;;;6.55;;
64615;SDS011;51027;42.162;24.754;2023-05-10T12:41:05;15.15;;;6.75;;
64615;SDS011;51027;42.162;24.754;2023-05-10T12:43:32;16.08;;;7.40;;
64615;SDS011;51027;42.162;24.754;2023-05-10T12:45:58;14.93;;;6.18;;
64615;SDS011;51027;42.162;24.754;2023-05-10T12:48:29;16.08;;;7.20;;
64615;SDS011;51027;42.162;24.754;2023-05-10T12:50:56;15.25;;;6.22;;
64615;SDS011;51027;42.162;24.754;2023-05-10T12:53:21;16.05;;;7.50;;
64615;SDS011;51027;42.162;24.754;2023-05-10T12:55:46;17.98;;;7.55;;
64615;SDS011;51027;42.162;24.754;2023-05-10T12:58:12;18.33;;;8.15;;
64615;SDS011;51027;42.162;24.754;2023-05-10T13:00:39;16.75;;;8.30;;
64615;SDS011;51027;42.162;24.754;2023-05-10T13:03:04;19.70;;;8.80;;
64615;SDS011;51027;42.162;24.754;2023-05-10T13:05:31;16.42;;;8.15;;
64615;SDS011;51027;42.162;24.754;2023-05-10T13:07:57;14.82;;;8.02;;
64615;SDS011;51027;42.162;24.754;2023-05-10T13:10:22;15.43;;;7.43;;
64615;SDS011;51027;42.162;24.754;2023-05-10T13:12:49;15.02;;;5.90;;
64615;SDS011;51027;42.162;24.754;2023-05-10T13:15:14;15.82;;;7.60;;
64615;SDS011;51027;42.162;24.754;2023-05-10T13:17:39;15.32;;;6.55;;
64615;SDS011;51027;42.162;24.754;2023-05-10T13:20:06;18.40;;;6.38;;
64615;SDS011;51027;42.162;24.754;2023-05-10T13:22:31;17.70;;;5.95;;
64615;SDS011;51027;42.162;24.754;2023-05-10T13:24:57;15.90;;;6.50;;
64615;SDS011;51027;42.162;24.754;2023-05-10T13:27:22;15.15;;;6.43;;
64615;SDS011;51027;42.162;24.754;2023-05-10T13:29:47;15.18;;;6.53;;
64615;SDS011;51027;42.162;24.754;2023-05-10T13:32:13;14.27;;;6.18;;
64615;SDS011;51027;42.162;24.754;2023-05-10T13:34:38;17.10;;;6.60;;
64615;SDS011;51027;42.162;24.754;2023-05-10T13:37:04;15.65;;;6.88;;
64615;SDS011;51027;42.162;24.754;2023-05-10T13:39:29;15.20;;;7.32;;
64615;SDS011;51027;42.162;24.754;2023-05-10T13:41:58;16.30;;;7.13;;
64615;SDS011;51027;42.162;24.754;2023-05-10T13:44:23;19.88;;;8.00;;
64615;SDS011;51027;42.162;24.754;2023-05-10T13:46:49;16.70;;;7.43;;
64615;SDS011;51027;42.162;24.754;2023-05-10T13:49:14;17.73;;;7.63;;
64615;SDS011;51027;42.162;24.754;2023-05-10T13:51:40;19.63;;;8.43;;
64615;SDS011;51027;42.162;24.754;2023-05-10T13:54:05;19.08;;;8.73;;
64615;SDS011;51027;42.162;24.754;2023-05-10T13:56:36;17.95;;;8.48;;
64615;SDS011;51027;42.162;24.754;2023-05-10T13:59:01;17.48;;;8.15;;
64615;SDS011;51027;42.162;24.754;2023-05-10T14:01:27;16.67;;;8.25;;
64615;SDS011;51027;42.162;24.754;2023-05-10T14:03:52;18.75;;;8.23;;
64615;SDS011;51027;42.162;24.754;2023-05-10T14:06:18;18.92;;;8.52;;
64615;SDS011;51027;42.162;24.754;2023-05-10T14:08:43;18.90;;;9.00;;
64615;SDS011;51027;42.162;24.754;2023-05-10T14:11:09;18.10;;;7.72;;
64615;SDS011;51027;42.162;24.754;2023-05-10T14:13:34;16.88;;;7.30;;
64615;SDS011;51027;42.162;24.754;2023-05-10T14:15:59;17.42;;;7.78;;
64615;SDS011;51027;42.162;24.754;2023-05-10T14:18:26;18.85;;;8.25;;
64615;SDS011;51027;42.162;24.754;2023-05-10T14:20:52;18.05;;;8.00;;
64615;SDS011;51027;42.162;24.754;2023-05-10T14:23:17;16.80;;;7.22;;
64615;SDS011;51027;42.162;24.754;2023-05-10T14:25:44;16.83;;;7.53;;
64615;SDS011;51027;42.162;24.754;2023-05-10T14:28:10;18.20;;;8.02;;
64615;SDS011;51027;42.162;24.754;2023-05-10T14:30:35;16.77;;;6.85;;
64615;SDS011;51027;42.162;24.754;2023-05-10T14:33:01;17.17;;;7.93;;
64615;SDS011;51027;42.162;24.754;2023-05-10T14:35:27;18.00;;;7.38;;
64615;SDS011;51027;42.162;24.754;2023-05-10T14:37:53;16.98;;;7.28;;
64615;SDS011;51027;42.162;24.754;2023-05-10T14:40:22;17.25;;;7.13;;
64615;SDS011;51027;42.162;24.754;2023-05-10T14:42:47;16.02;;;6.65;;
64615;SDS011;51027;42.162;24.754;2023-05-10T14:45:13;16.83;;;6.70;;
64615;SDS011;51027;42.162;24.754;2023-05-10T14:47:38;16.95;;;6.85;;
64615;SDS011;51027;42.162;24.754;2023-05-10T14:50:04;16.20;;;6.85;;
64615;SDS011;51027;42.162;24.754;2023-05-10T14:55:52;16.02;;;6.35;;
64615;SDS011;51027;42.162;24.754;2023-05-10T14:58:17;14.88;;;5.95;;
64615;SDS011;51027;42.162;24.754;2023-05-10T15:00:42;16.25;;;6.72;;
64615;SDS011;51027;42.162;24.754;2023-05-10T15:03:08;15.68;;;6.90;;
64615;SDS011;51027;42.162;24.754;2023-05-10T15:05:34;15.15;;;6.65;;
64615;SDS011;51027;42.162;24.754;2023-05-10T15:07:59;15.80;;;6.30;;
64615;SDS011;51027;42.162;24.754;2023-05-10T15:10:25;15.05;;;6.00;;
64615;SDS011;51027;42.162;24.754;2023-05-10T15:12:50;16.77;;;6.22;;
64615;SDS011;51027;42.162;24.754;2023-05-10T15:15:15;16.33;;;6.03;;